sensor_id;sensor_type;location;lat;lon;timestamp;temperature;humidity
18163;DHT22;9206;50.994;4.538;2023-09-19T00:00:24;15.10;99.90
18163;DHT22;9206;50.994;4.538;2023-09-19T00:03:17;15.00;99.90
18163;DHT22;9206;50.994;4.538;2023-09-19T00:06:16;15.00;99.90
18163;DHT22;9206;50.994;4.538;2023-09-19T00:09:05;15.00;99.90
18163;DHT22;9206;50.994;4.538;2023-09-19T00:11:58;15.00;99.90
18163;DHT22;9206;50.994;4.538;2023-09-19T00:14:49;15.00;99.90
18163;DHT22;9206;50.994;4.538;2023-09-19T00:17:43;15.00;99.90
18163;DHT22;9206;50.994;4.538;2023-09-19T00:20:32;15.00;99.90
18163;DHT22;9206;50.994;4.538;2023-09-19T00:23:28;15.00;99.90
18163;DHT22;9206;50.994;4.538;2023-09-19T00:26:21;15.00;99.90
18163;DHT22;9206;50.994;4.538;2023-09-19T00:29:10;15.00;99.90
18163;DHT22;9206;50.994;4.538;2023-09-19T00:32:01;15.00;99.90
18163;DHT22;9206;50.994;4.538;2023-09-19T00:34:55;15.00;99.90
18163;DHT22;9206;50.994;4.538;2023-09-19T00:37:46;15.00;99.90
18163;DHT22;9206;50.994;4.538;2023-09-19T00:40:36;15.00;99.90
18163;DHT22;9206;50.994;4.538;2023-09-19T00:43:26;14.90;99.90
18163;DHT22;9206;50.994;4.538;2023-09-19T00:46:17;14.90;99.90
18163;DHT22;9206;50.994;4.538;2023-09-19T00:49:08;14.90;99.90
18163;DHT22;9206;50.994;4.538;2023-09-19T00:51:58;14.90;99.90
18163;DHT22;9206;50.994;4.538;2023-09-19T00:54:50;14.80;99.90
18163;DHT22;9206;50.994;4.538;2023-09-19T00:57:45;14.80;99.90
18163;DHT22;9206;50.994;4.538;2023-09-19T01:00:40;14.80;99.90
18163;DHT22;9206;50.994;4.538;2023-09-19T01:03:30;14.80;99.90
18163;DHT22;9206;50.994;4.538;2023-09-19T01:06:21;14.70;99.90
18163;DHT22;9206;50.994;4.538;2023-09-19T01:09:14;14.70;99.90
18163;DHT22;9206;50.994;4.538;2023-09-19T01:12:08;14.60;99.90
18163;DHT22;9206;50.994;4.538;2023-09-19T01:15:03;14.60;99.90
18163;DHT22;9206;50.994;4.538;2023-09-19T01:17:59;14.50;99.90
18163;DHT22;9206;50.994;4.538;2023-09-19T01:20:57;14.50;99.90
18163;DHT22;9206;50.994;4.538;2023-09-19T01:24:07;14.50;99.90
18163;DHT22;9206;50.994;4.538;2023-09-19T01:30:27;14.40;99.90
18163;DHT22;9206;50.994;4.538;2023-09-19T01:33:19;14.40;99.90
18163;DHT22;9206;50.994;4.538;2023-09-19T01:36:10;14.40;99.90
18163;DHT22;9206;50.994;4.538;2023-09-19T01:39:01;14.50;99.90
18163;DHT22;9206;50.994;4.538;2023-09-19T01:42:05;14.50;99.90
18163;DHT22;9206;50.994;4.538;2023-09-19T01:45:04;14.40;99.90
18163;DHT22;9206;50.994;4.538;2023-09-19T01:48:05;14.40;99.90
18163;DHT22;9206;50.994;4.538;2023-09-19T01:51:06;14.40;99.90
18163;DHT22;9206;50.994;4.538;2023-09-19T01:54:03;14.30;99.90
18163;DHT22;9206;50.994;4.538;2023-09-19T01:57:07;14.30;99.90
18163;DHT22;9206;50.994;4.538;2023-09-19T02:00:00;14.30;99.90
18163;DHT22;9206;50.994;4.538;2023-09-19T02:02:54;14.30;99.90
18163;DHT22;9206;50.994;4.538;2023-09-19T02:05:49;14.30;99.90
18163;DHT22;9206;50.994;4.538;2023-09-19T02:08:43;14.30;99.90
18163;DHT22;9206;50.994;4.538;2023-09-19T02:11:31;14.30;99.90
18163;DHT22;9206;50.994;4.538;2023-09-19T02:14:21;14.30;99.90
18163;DHT22;9206;50.994;4.538;2023-09-19T02:17:12;14.40;99.90
18163;DHT22;9206;50.994;4.538;2023-09-19T02:20:03;14.40;99.90
18163;DHT22;9206;50.994;4.538;2023-09-19T02:22:58;14.40;99.90
18163;DHT22;9206;50.994;4.538;2023-09-19T02:25:52;14.40;99.90
18163;DHT22;9206;50.994;4.538;2023-09-19T02:28:45;14.40;99.90
18163;DHT22;9206;50.994;4.538;2023-09-19T02:31:34;14.40;99.90
18163;DHT22;9206;50.994;4.538;2023-09-19T02:34:24;14.50;99.90
18163;DHT22;9206;50.994;4.538;2023-09-19T02:37:12;14.50;99.90
18163;DHT22;9206;50.994;4.538;2023-09-19T02:40:10;14.50;99.90
18163;DHT22;9206;50.994;4.538;2023-09-19T02:43:05;14.60;99.90
18163;DHT22;9206;50.994;4.538;2023-09-19T02:45:55;14.70;99.90
18163;DHT22;9206;50.994;4.538;2023-09-19T02:48:45;14.70;99.90
18163;DHT22;9206;50.994;4.538;2023-09-19T02:51:36;14.80;99.90
18163;DHT22;9206;50.994;4.538;2023-09-19T02:54:29;14.80;99.90
18163;DHT22;9206;50.994;4.538;2023-09-19T03:08:42;14.80;99.90
18163;DHT22;9206;50.994;4.538;2023-09-19T03:13:39;14.70;99.90
18163;DHT22;9206;50.994;4.538;2023-09-19T03:19:39;14.60;99.90
18163;DHT22;9206;50.994;4.538;2023-09-19T03:22:26;14.60;99.90
18163;DHT22;9206;50.994;4.538;2023-09-19T03:25:15;14.60;99.90
18163;DHT22;9206;50.994;4.538;2023-09-19T03:28:09;14.60;99.90
18163;DHT22;9206;50.994;4.538;2023-09-19T03:31:00;14.60;99.90
18163;DHT22;9206;50.994;4.538;2023-09-19T03:33:47;14.60;99.90
18163;DHT22;9206;50.994;4.538;2023-09-19T03:36:38;14.60;99.90
18163;DHT22;9206;50.994;4.538;2023-09-19T03:39:29;14.60;99.90
18163;DHT22;9206;50.994;4.538;2023-09-19T03:42:21;14.60;99.90
18163;DHT22;9206;50.994;4.538;2023-09-19T03:45:13;14.60;99.90
18163;DHT22;9206;50.994;4.538;2023-09-19T03:48:08;14.60;99.90
18163;DHT22;9206;50.994;4.538;2023-09-19T03:50:58;14.70;99.90
18163;DHT22;9206;50.994;4.538;2023-09-19T03:53:45;14.70;99.90
18163;DHT22;9206;50.994;4.538;2023-09-19T03:56:38;14.70;99.90
18163;DHT22;9206;50.994;4.538;2023-09-19T03:59:29;14.70;99.90
18163;DHT22;9206;50.994;4.538;2023-09-19T04:02:17;14.70;99.90
18163;DHT22;9206;50.994;4.538;2023-09-19T04:05:15;14.70;99.90
18163;DHT22;9206;50.994;4.538;2023-09-19T04:08:04;14.70;99.90
18163;DHT22;9206;50.994;4.538;2023-09-19T04:11:02;14.70;99.90
18163;DHT22;9206;50.994;4.538;2023-09-19T04:13:55;14.60;99.90
18163;DHT22;9206;50.994;4.538;2023-09-19T04:16:45;14.60;99.90
18163;DHT22;9206;50.994;4.538;2023-09-19T04:19:33;14.60;99.90
18163;DHT22;9206;50.994;4.538;2023-09-19T04:22:20;14.60;99.90
18163;DHT22;9206;50.994;4.538;2023-09-19T04:25:09;14.50;99.90
18163;DHT22;9206;50.994;4.538;2023-09-19T04:27:56;14.40;99.90
18163;DHT22;9206;50.994;4.538;2023-09-19T04:30:45;14.40;99.90
18163;DHT22;9206;50.994;4.538;2023-09-19T04:33:36;14.30;99.90
18163;DHT22;9206;50.994;4.538;2023-09-19T04:36:25;14.30;99.90
18163;DHT22;9206;50.994;4.538;2023-09-19T04:39:14;14.30;99.90
18163;DHT22;9206;50.994;4.538;2023-09-19T04:42:04;14.30;99.90
18163;DHT22;9206;50.994;4.538;2023-09-19T04:44:57;14.20;99.90
18163;DHT22;9206;50.994;4.538;2023-09-19T04:47:48;14.20;99.90
18163;DHT22;9206;50.994;4.538;2023-09-19T04:50:38;14.20;99.90
18163;DHT22;9206;50.994;4.538;2023-09-19T04:53:28;14.20;99.90
18163;DHT22;9206;50.994;4.538;2023-09-19T04:56:15;14.10;99.90
18163;DHT22;9206;50.994;4.538;2023-09-19T04:59:04;14.10;99.90
18163;DHT22;9206;50.994;4.538;2023-09-19T05:05:11;14.10;99.90
18163;DHT22;9206;50.994;4.538;2023-09-19T05:08:05;14.00;99.90
18163;DHT22;9206;50.994;4.538;2023-09-19T05:10:55;14.00;99.90
18163;DHT22;9206;50.994;4.538;2023-09-19T05:13:43;14.00;99.90
18163;DHT22;9206;50.994;4.538;2023-09-19T05:16:31;14.00;99.90
18163;DHT22;9206;50.994;4.538;2023-09-19T05:19:21;14.00;99.90
18163;DHT22;9206;50.994;4.538;2023-09-19T05:22:10;14.10;99.90
18163;DHT22;9206;50.994;4.538;2023-09-19T05:25:00;14.00;99.90
18163;DHT22;9206;50.994;4.538;2023-09-19T05:27:53;14.00;99.90
18163;DHT22;9206;50.994;4.538;2023-09-19T05:30:46;14.10;99.90
18163;DHT22;9206;50.994;4.538;2023-09-19T05:33:35;14.10;99.90
18163;DHT22;9206;50.994;4.538;2023-09-19T05:36:22;14.10;99.90
18163;DHT22;9206;50.994;4.538;2023-09-19T05:39:13;14.10;99.90
18163;DHT22;9206;50.994;4.538;2023-09-19T05:42:07;14.10;99.90
18163;DHT22;9206;50.994;4.538;2023-09-19T05:44:57;14.10;99.90
18163;DHT22;9206;50.994;4.538;2023-09-19T05:47:48;14.10;99.90
18163;DHT22;9206;50.994;4.538;2023-09-19T05:50:41;14.20;99.90
18163;DHT22;9206;50.994;4.538;2023-09-19T05:53:35;14.20;99.90
18163;DHT22;9206;50.994;4.538;2023-09-19T05:56:26;14.20;99.90
18163;DHT22;9206;50.994;4.538;2023-09-19T05:59:18;14.30;99.90
18163;DHT22;9206;50.994;4.538;2023-09-19T06:02:12;14.30;99.90
18163;DHT22;9206;50.994;4.538;2023-09-19T06:05:06;14.40;99.90
18163;DHT22;9206;50.994;4.538;2023-09-19T06:08:02;14.40;99.90
18163;DHT22;9206;50.994;4.538;2023-09-19T06:10:54;14.50;99.90
18163;DHT22;9206;50.994;4.538;2023-09-19T06:13:54;14.60;99.90
18163;DHT22;9206;50.994;4.538;2023-09-19T06:16:45;14.60;99.90
18163;DHT22;9206;50.994;4.538;2023-09-19T06:19:35;14.60;99.90
18163;DHT22;9206;50.994;4.538;2023-09-19T06:22:29;14.70;99.90
18163;DHT22;9206;50.994;4.538;2023-09-19T06:25:36;14.80;99.90
18163;DHT22;9206;50.994;4.538;2023-09-19T06:28:30;14.90;99.90
18163;DHT22;9206;50.994;4.538;2023-09-19T06:31:20;15.00;99.90
18163;DHT22;9206;50.994;4.538;2023-09-19T06:34:12;15.20;99.90
18163;DHT22;9206;50.994;4.538;2023-09-19T06:37:07;15.40;99.90
18163;DHT22;9206;50.994;4.538;2023-09-19T06:39:57;15.50;99.90
18163;DHT22;9206;50.994;4.538;2023-09-19T06:42:51;15.70;99.90
18163;DHT22;9206;50.994;4.538;2023-09-19T06:45:46;15.80;99.90
18163;DHT22;9206;50.994;4.538;2023-09-19T06:48:37;15.90;99.90
18163;DHT22;9206;50.994;4.538;2023-09-19T06:51:31;15.90;99.90
18163;DHT22;9206;50.994;4.538;2023-09-19T06:54:20;15.80;99.90
18163;DHT22;9206;50.994;4.538;2023-09-19T06:57:08;15.70;99.90
18163;DHT22;9206;50.994;4.538;2023-09-19T07:00:11;15.80;99.90
18163;DHT22;9206;50.994;4.538;2023-09-19T07:03:06;15.80;99.90
18163;DHT22;9206;50.994;4.538;2023-09-19T07:06:00;15.90;99.90
18163;DHT22;9206;50.994;4.538;2023-09-19T07:09:05;15.90;99.90
18163;DHT22;9206;50.994;4.538;2023-09-19T07:11:56;16.00;99.90
18163;DHT22;9206;50.994;4.538;2023-09-19T07:14:49;16.00;99.90
18163;DHT22;9206;50.994;4.538;2023-09-19T07:17:36;16.10;99.90
18163;DHT22;9206;50.994;4.538;2023-09-19T07:20:24;16.10;99.90
18163;DHT22;9206;50.994;4.538;2023-09-19T07:23:19;16.20;99.90
18163;DHT22;9206;50.994;4.538;2023-09-19T07:26:09;16.20;99.90
18163;DHT22;9206;50.994;4.538;2023-09-19T07:28:59;16.40;99.90
18163;DHT22;9206;50.994;4.538;2023-09-19T07:31:54;16.50;99.90
18163;DHT22;9206;50.994;4.538;2023-09-19T07:34:47;16.60;99.90
18163;DHT22;9206;50.994;4.538;2023-09-19T07:37:35;16.60;99.90
18163;DHT22;9206;50.994;4.538;2023-09-19T07:40:23;16.70;99.90
18163;DHT22;9206;50.994;4.538;2023-09-19T07:43:17;16.80;99.90
18163;DHT22;9206;50.994;4.538;2023-09-19T07:46:10;16.90;99.90
18163;DHT22;9206;50.994;4.538;2023-09-19T07:49:00;17.00;99.90
18163;DHT22;9206;50.994;4.538;2023-09-19T07:51:54;17.00;99.90
18163;DHT22;9206;50.994;4.538;2023-09-19T07:54:46;17.20;99.90
18163;DHT22;9206;50.994;4.538;2023-09-19T07:57:40;17.40;99.90
18163;DHT22;9206;50.994;4.538;2023-09-19T08:00:30;17.40;99.90
18163;DHT22;9206;50.994;4.538;2023-09-19T08:03:20;17.60;99.90
18163;DHT22;9206;50.994;4.538;2023-09-19T08:06:10;18.20;99.90
18163;DHT22;9206;50.994;4.538;2023-09-19T08:09:00;18.80;99.90
18163;DHT22;9206;50.994;4.538;2023-09-19T08:11:53;19.30;99.90
18163;DHT22;9206;50.994;4.538;2023-09-19T08:14:44;19.80;99.90
18163;DHT22;9206;50.994;4.538;2023-09-19T08:17:35;19.80;99.90
18163;DHT22;9206;50.994;4.538;2023-09-19T08:20:23;20.00;99.90
18163;DHT22;9206;50.994;4.538;2023-09-19T08:23:13;20.10;99.90
18163;DHT22;9206;50.994;4.538;2023-09-19T08:26:06;20.80;99.90
18163;DHT22;9206;50.994;4.538;2023-09-19T08:29:00;21.50;99.90
18163;DHT22;9206;50.994;4.538;2023-09-19T08:31:54;21.80;99.90
18163;DHT22;9206;50.994;4.538;2023-09-19T08:34:45;22.10;99.90
18163;DHT22;9206;50.994;4.538;2023-09-19T08:37:36;21.80;99.90
18163;DHT22;9206;50.994;4.538;2023-09-19T08:40:25;22.10;99.90
18163;DHT22;9206;50.994;4.538;2023-09-19T08:43:29;22.20;99.90
18163;DHT22;9206;50.994;4.538;2023-09-19T08:46:31;22.20;99.90
18163;DHT22;9206;50.994;4.538;2023-09-19T08:49:32;22.60;99.90
18163;DHT22;9206;50.994;4.538;2023-09-19T08:52:28;23.50;99.90
18163;DHT22;9206;50.994;4.538;2023-09-19T08:55:28;24.20;99.90
18163;DHT22;9206;50.994;4.538;2023-09-19T08:58:26;24.70;99.90
18163;DHT22;9206;50.994;4.538;2023-09-19T09:01:21;24.20;99.90
18163;DHT22;9206;50.994;4.538;2023-09-19T09:04:11;24.50;99.90
18163;DHT22;9206;50.994;4.538;2023-09-19T09:07:05;24.10;99.90
18163;DHT22;9206;50.994;4.538;2023-09-19T09:09:57;24.20;99.90
18163;DHT22;9206;50.994;4.538;2023-09-19T09:12:46;23.50;99.90
18163;DHT22;9206;50.994;4.538;2023-09-19T09:15:35;23.60;99.90
18163;DHT22;9206;50.994;4.538;2023-09-19T09:18:24;24.20;99.90
18163;DHT22;9206;50.994;4.538;2023-09-19T09:21:12;23.80;99.90
18163;DHT22;9206;50.994;4.538;2023-09-19T09:27:28;23.30;99.90
18163;DHT22;9206;50.994;4.538;2023-09-19T09:30:33;23.30;99.90
18163;DHT22;9206;50.994;4.538;2023-09-19T09:33:22;22.70;99.90
18163;DHT22;9206;50.994;4.538;2023-09-19T09:36:10;22.60;99.90
18163;DHT22;9206;50.994;4.538;2023-09-19T09:39:04;22.70;99.90
18163;DHT22;9206;50.994;4.538;2023-09-19T09:42:07;22.10;99.90
18163;DHT22;9206;50.994;4.538;2023-09-19T09:45:12;22.30;99.90
18163;DHT22;9206;50.994;4.538;2023-09-19T09:48:00;22.40;99.90
18163;DHT22;9206;50.994;4.538;2023-09-19T09:50:49;22.30;99.90
18163;DHT22;9206;50.994;4.538;2023-09-19T09:53:44;22.10;99.90
18163;DHT22;9206;50.994;4.538;2023-09-19T09:56:31;22.00;99.90
18163;DHT22;9206;50.994;4.538;2023-09-19T09:59:21;21.80;99.90
18163;DHT22;9206;50.994;4.538;2023-09-19T10:02:18;22.00;99.90
18163;DHT22;9206;50.994;4.538;2023-09-19T10:05:23;22.50;99.90
18163;DHT22;9206;50.994;4.538;2023-09-19T10:08:26;22.60;99.90
18163;DHT22;9206;50.994;4.538;2023-09-19T10:11:20;22.90;99.90
18163;DHT22;9206;50.994;4.538;2023-09-19T10:14:25;24.00;99.90
18163;DHT22;9206;50.994;4.538;2023-09-19T10:17:25;24.70;99.90
18163;DHT22;9206;50.994;4.538;2023-09-19T10:20:19;25.00;99.90
18163;DHT22;9206;50.994;4.538;2023-09-19T10:23:22;25.20;99.90
18163;DHT22;9206;50.994;4.538;2023-09-19T10:26:18;25.90;99.90
18163;DHT22;9206;50.994;4.538;2023-09-19T10:29:07;26.40;99.90
18163;DHT22;9206;50.994;4.538;2023-09-19T10:31:58;26.30;99.90
18163;DHT22;9206;50.994;4.538;2023-09-19T10:34:49;27.30;99.90
18163;DHT22;9206;50.994;4.538;2023-09-19T10:37:45;27.10;99.90
18163;DHT22;9206;50.994;4.538;2023-09-19T10:40:37;26.50;99.90
18163;DHT22;9206;50.994;4.538;2023-09-19T10:43:33;26.30;99.90
18163;DHT22;9206;50.994;4.538;2023-09-19T10:46:27;26.10;99.90
18163;DHT22;9206;50.994;4.538;2023-09-19T10:49:19;27.10;99.90
18163;DHT22;9206;50.994;4.538;2023-09-19T10:52:08;27.30;99.90
18163;DHT22;9206;50.994;4.538;2023-09-19T10:55:06;28.00;99.90
18163;DHT22;9206;50.994;4.538;2023-09-19T10:57:59;27.30;99.90
18163;DHT22;9206;50.994;4.538;2023-09-19T11:00:53;27.30;99.90
18163;DHT22;9206;50.994;4.538;2023-09-19T11:03:41;27.70;99.90
18163;DHT22;9206;50.994;4.538;2023-09-19T11:06:32;28.40;99.90
18163;DHT22;9206;50.994;4.538;2023-09-19T11:09:22;27.80;99.90
18163;DHT22;9206;50.994;4.538;2023-09-19T11:12:12;26.40;99.90
18163;DHT22;9206;50.994;4.538;2023-09-19T11:15:03;26.00;99.90
18163;DHT22;9206;50.994;4.538;2023-09-19T11:17:56;26.30;99.90
18163;DHT22;9206;50.994;4.538;2023-09-19T11:20:47;26.00;99.90
18163;DHT22;9206;50.994;4.538;2023-09-19T11:23:38;26.80;99.90
18163;DHT22;9206;50.994;4.538;2023-09-19T11:26:41;26.80;99.90
18163;DHT22;9206;50.994;4.538;2023-09-19T11:29:40;26.50;99.90
18163;DHT22;9206;50.994;4.538;2023-09-19T11:36:08;26.30;99.90
18163;DHT22;9206;50.994;4.538;2023-09-19T11:38:59;26.10;99.90
18163;DHT22;9206;50.994;4.538;2023-09-19T11:46:03;25.40;99.90
18163;DHT22;9206;50.994;4.538;2023-09-19T11:48:52;25.10;99.90
18163;DHT22;9206;50.994;4.538;2023-09-19T11:51:42;24.40;99.90
18163;DHT22;9206;50.994;4.538;2023-09-19T11:54:34;24.00;99.90
18163;DHT22;9206;50.994;4.538;2023-09-19T11:57:29;23.30;99.90
18163;DHT22;9206;50.994;4.538;2023-09-19T12:00:18;22.90;99.90
18163;DHT22;9206;50.994;4.538;2023-09-19T12:03:09;22.40;99.90
18163;DHT22;9206;50.994;4.538;2023-09-19T12:05:58;21.90;99.90
18163;DHT22;9206;50.994;4.538;2023-09-19T12:08:45;21.80;99.90
18163;DHT22;9206;50.994;4.538;2023-09-19T12:11:41;21.70;99.90
18163;DHT22;9206;50.994;4.538;2023-09-19T12:14:38;21.60;99.90
18163;DHT22;9206;50.994;4.538;2023-09-19T12:17:35;21.50;99.90
18163;DHT22;9206;50.994;4.538;2023-09-19T12:20:25;21.40;99.90
18163;DHT22;9206;50.994;4.538;2023-09-19T12:23:15;21.70;99.90
18163;DHT22;9206;50.994;4.538;2023-09-19T12:26:09;22.00;99.90
18163;DHT22;9206;50.994;4.538;2023-09-19T12:29:01;21.90;99.90
18163;DHT22;9206;50.994;4.538;2023-09-19T12:31:59;21.70;99.90
18163;DHT22;9206;50.994;4.538;2023-09-19T12:34:58;21.70;99.90
18163;DHT22;9206;50.994;4.538;2023-09-19T12:37:51;22.10;99.90
18163;DHT22;9206;50.994;4.538;2023-09-19T12:40:43;22.60;99.90
18163;DHT22;9206;50.994;4.538;2023-09-19T12:43:51;22.10;99.90
18163;DHT22;9206;50.994;4.538;2023-09-19T12:46:45;21.70;99.90
18163;DHT22;9206;50.994;4.538;2023-09-19T12:49:34;21.50;99.90
18163;DHT22;9206;50.994;4.538;2023-09-19T12:52:38;21.30;99.90
18163;DHT22;9206;50.994;4.538;2023-09-19T12:55:30;21.20;99.90
18163;DHT22;9206;50.994;4.538;2023-09-19T12:58:19;21.10;99.90
18163;DHT22;9206;50.994;4.538;2023-09-19T13:01:14;20.90;99.90
18163;DHT22;9206;50.994;4.538;2023-09-19T13:04:14;21.30;99.90
18163;DHT22;9206;50.994;4.538;2023-09-19T13:07:07;21.50;99.90
18163;DHT22;9206;50.994;4.538;2023-09-19T13:10:07;21.40;99.90
18163;DHT22;9206;50.994;4.538;2023-09-19T13:12:59;21.20;99.90
18163;DHT22;9206;50.994;4.538;2023-09-19T13:16:14;21.00;99.90
18163;DHT22;9206;50.994;4.538;2023-09-19T13:19:08;20.70;99.90
18163;DHT22;9206;50.994;4.538;2023-09-19T13:21:59;20.50;99.90
18163;DHT22;9206;50.994;4.538;2023-09-19T13:24:49;20.40;99.90
18163;DHT22;9206;50.994;4.538;2023-09-19T13:27:38;20.30;99.90
18163;DHT22;9206;50.994;4.538;2023-09-19T13:30:27;20.40;99.90
18163;DHT22;9206;50.994;4.538;2023-09-19T13:33:17;20.60;99.90
18163;DHT22;9206;50.994;4.538;2023-09-19T13:36:10;20.80;99.90
18163;DHT22;9206;50.994;4.538;2023-09-19T13:39:00;20.70;99.90
18163;DHT22;9206;50.994;4.538;2023-09-19T13:41:55;20.70;99.90
18163;DHT22;9206;50.994;4.538;2023-09-19T13:44:49;20.80;99.90
18163;DHT22;9206;50.994;4.538;2023-09-19T13:47:37;20.90;99.90
18163;DHT22;9206;50.994;4.538;2023-09-19T13:50:31;21.20;99.90
18163;DHT22;9206;50.994;4.538;2023-09-19T13:53:24;21.30;99.90
18163;DHT22;9206;50.994;4.538;2023-09-19T13:56:13;21.50;99.90
18163;DHT22;9206;50.994;4.538;2023-09-19T13:59:05;21.50;99.90
18163;DHT22;9206;50.994;4.538;2023-09-19T14:01:59;21.40;99.90
18163;DHT22;9206;50.994;4.538;2023-09-19T14:04:47;21.40;99.90
18163;DHT22;9206;50.994;4.538;2023-09-19T14:07:37;21.30;99.90
18163;DHT22;9206;50.994;4.538;2023-09-19T14:10:25;21.30;99.90
18163;DHT22;9206;50.994;4.538;2023-09-19T14:13:16;21.30;99.90
18163;DHT22;9206;50.994;4.538;2023-09-19T14:16:11;21.40;99.90
18163;DHT22;9206;50.994;4.538;2023-09-19T14:19:04;21.40;99.90
18163;DHT22;9206;50.994;4.538;2023-09-19T14:22:02;21.40;99.90
18163;DHT22;9206;50.994;4.538;2023-09-19T14:24:53;21.60;99.90
18163;DHT22;9206;50.994;4.538;2023-09-19T14:27:43;21.70;99.90
18163;DHT22;9206;50.994;4.538;2023-09-19T14:30:41;21.90;99.90
18163;DHT22;9206;50.994;4.538;2023-09-19T14:33:32;21.90;99.90
18163;DHT22;9206;50.994;4.538;2023-09-19T14:36:20;22.00;99.90
18163;DHT22;9206;50.994;4.538;2023-09-19T14:39:09;22.10;99.90
18163;DHT22;9206;50.994;4.538;2023-09-19T14:41:58;22.20;99.90
18163;DHT22;9206;50.994;4.538;2023-09-19T14:44:46;22.50;99.90
18163;DHT22;9206;50.994;4.538;2023-09-19T14:47:34;22.60;99.90
18163;DHT22;9206;50.994;4.538;2023-09-19T14:50:25;22.30;99.90
18163;DHT22;9206;50.994;4.538;2023-09-19T14:53:16;22.30;99.90
18163;DHT22;9206;50.994;4.538;2023-09-19T14:56:10;22.20;99.90
18163;DHT22;9206;50.994;4.538;2023-09-19T14:58:58;21.80;99.90
18163;DHT22;9206;50.994;4.538;2023-09-19T15:01:52;21.50;99.90
18163;DHT22;9206;50.994;4.538;2023-09-19T15:04:39;21.10;99.90
18163;DHT22;9206;50.994;4.538;2023-09-19T15:07:28;21.00;99.90
18163;DHT22;9206;50.994;4.538;2023-09-19T15:10:18;20.80;99.90
18163;DHT22;9206;50.994;4.538;2023-09-19T15:13:05;20.60;99.90
18163;DHT22;9206;50.994;4.538;2023-09-19T15:15:53;20.40;99.90
18163;DHT22;9206;50.994;4.538;2023-09-19T15:18:46;20.20;99.90
18163;DHT22;9206;50.994;4.538;2023-09-19T15:21:40;20.20;99.90
18163;DHT22;9206;50.994;4.538;2023-09-19T15:24:31;20.10;99.90
18163;DHT22;9206;50.994;4.538;2023-09-19T15:27:30;20.00;99.90
18163;DHT22;9206;50.994;4.538;2023-09-19T15:30:21;20.10;99.90
18163;DHT22;9206;50.994;4.538;2023-09-19T15:33:09;20.20;99.90
18163;DHT22;9206;50.994;4.538;2023-09-19T15:36:05;20.10;99.90
18163;DHT22;9206;50.994;4.538;2023-09-19T15:39:00;20.00;99.90
18163;DHT22;9206;50.994;4.538;2023-09-19T15:41:52;20.00;99.90
18163;DHT22;9206;50.994;4.538;2023-09-19T15:44:42;20.00;99.90
18163;DHT22;9206;50.994;4.538;2023-09-19T15:47:34;19.90;99.90
18163;DHT22;9206;50.994;4.538;2023-09-19T15:50:24;19.80;99.90
18163;DHT22;9206;50.994;4.538;2023-09-19T15:53:15;19.80;99.90
18163;DHT22;9206;50.994;4.538;2023-09-19T15:56:06;19.70;99.90
18163;DHT22;9206;50.994;4.538;2023-09-19T15:59:00;19.60;99.90
18163;DHT22;9206;50.994;4.538;2023-09-19T16:01:50;19.60;99.90
18163;DHT22;9206;50.994;4.538;2023-09-19T16:04:43;19.60;99.90
18163;DHT22;9206;50.994;4.538;2023-09-19T16:07:32;19.60;99.90
18163;DHT22;9206;50.994;4.538;2023-09-19T16:10:23;19.60;99.90
18163;DHT22;9206;50.994;4.538;2023-09-19T16:13:10;19.60;99.90
18163;DHT22;9206;50.994;4.538;2023-09-19T16:16:00;19.50;99.90
18163;DHT22;9206;50.994;4.538;2023-09-19T16:18:50;19.50;99.90
18163;DHT22;9206;50.994;4.538;2023-09-19T16:21:40;19.50;99.90
18163;DHT22;9206;50.994;4.538;2023-09-19T16:24:29;19.40;99.90
18163;DHT22;9206;50.994;4.538;2023-09-19T16:27:16;19.40;99.90
18163;DHT22;9206;50.994;4.538;2023-09-19T16:30:13;19.50;99.90
18163;DHT22;9206;50.994;4.538;2023-09-19T16:33:06;19.50;99.90
18163;DHT22;9206;50.994;4.538;2023-09-19T16:35:55;19.50;99.90
18163;DHT22;9206;50.994;4.538;2023-09-19T16:38:47;19.40;99.90
18163;DHT22;9206;50.994;4.538;2023-09-19T16:41:36;19.40;99.90
18163;DHT22;9206;50.994;4.538;2023-09-19T16:44:26;19.40;99.90
18163;DHT22;9206;50.994;4.538;2023-09-19T16:47:16;19.40;99.90
18163;DHT22;9206;50.994;4.538;2023-09-19T16:50:11;19.30;99.90
18163;DHT22;9206;50.994;4.538;2023-09-19T16:53:05;19.30;99.90
18163;DHT22;9206;50.994;4.538;2023-09-19T16:56:02;19.30;99.90
18163;DHT22;9206;50.994;4.538;2023-09-19T16:58:53;19.30;99.90
18163;DHT22;9206;50.994;4.538;2023-09-19T17:01:42;19.20;99.90
18163;DHT22;9206;50.994;4.538;2023-09-19T17:04:30;19.20;99.90
18163;DHT22;9206;50.994;4.538;2023-09-19T17:07:19;19.20;99.90
18163;DHT22;9206;50.994;4.538;2023-09-19T17:10:08;19.20;99.90
18163;DHT22;9206;50.994;4.538;2023-09-19T17:12:56;19.10;99.90
18163;DHT22;9206;50.994;4.538;2023-09-19T17:15:47;19.10;99.90
18163;DHT22;9206;50.994;4.538;2023-09-19T17:18:45;19.10;99.90
18163;DHT22;9206;50.994;4.538;2023-09-19T17:21:42;19.10;99.90
18163;DHT22;9206;50.994;4.538;2023-09-19T17:24:38;19.00;99.90
18163;DHT22;9206;50.994;4.538;2023-09-19T17:27:25;18.90;99.90
18163;DHT22;9206;50.994;4.538;2023-09-19T17:30:13;18.90;99.90
18163;DHT22;9206;50.994;4.538;2023-09-19T17:33:04;18.90;99.90
18163;DHT22;9206;50.994;4.538;2023-09-19T17:35:53;18.90;99.90
18163;DHT22;9206;50.994;4.538;2023-09-19T17:38:47;18.80;99.90
18163;DHT22;9206;50.994;4.538;2023-09-19T17:41:43;18.80;99.90
18163;DHT22;9206;50.994;4.538;2023-09-19T17:44:32;18.70;99.90
18163;DHT22;9206;50.994;4.538;2023-09-19T17:47:24;18.60;99.90
18163;DHT22;9206;50.994;4.538;2023-09-19T17:50:11;18.50;99.90
18163;DHT22;9206;50.994;4.538;2023-09-19T17:53:02;18.50;99.90
18163;DHT22;9206;50.994;4.538;2023-09-19T17:55:56;18.50;99.90
18163;DHT22;9206;50.994;4.538;2023-09-19T17:58:47;18.50;99.90
18163;DHT22;9206;50.994;4.538;2023-09-19T18:01:41;18.50;99.90
18163;DHT22;9206;50.994;4.538;2023-09-19T18:04:29;18.50;99.90
18163;DHT22;9206;50.994;4.538;2023-09-19T18:07:17;18.40;99.90
18163;DHT22;9206;50.994;4.538;2023-09-19T18:10:05;18.40;99.90
18163;DHT22;9206;50.994;4.538;2023-09-19T18:12:53;18.40;99.90
18163;DHT22;9206;50.994;4.538;2023-09-19T18:15:48;18.40;99.90
18163;DHT22;9206;50.994;4.538;2023-09-19T18:18:37;18.30;99.90
18163;DHT22;9206;50.994;4.538;2023-09-19T18:21:26;18.30;99.90
18163;DHT22;9206;50.994;4.538;2023-09-19T18:24:16;18.20;99.90
18163;DHT22;9206;50.994;4.538;2023-09-19T18:27:04;18.30;99.90
18163;DHT22;9206;50.994;4.538;2023-09-19T18:29:54;18.20;99.90
18163;DHT22;9206;50.994;4.538;2023-09-19T18:32:46;18.20;99.90
18163;DHT22;9206;50.994;4.538;2023-09-19T18:35:40;18.20;99.90
18163;DHT22;9206;50.994;4.538;2023-09-19T18:38:30;18.30;99.90
18163;DHT22;9206;50.994;4.538;2023-09-19T18:41:21;18.20;99.90
18163;DHT22;9206;50.994;4.538;2023-09-19T18:44:10;18.30;99.90
18163;DHT22;9206;50.994;4.538;2023-09-19T18:47:03;18.30;99.90
18163;DHT22;9206;50.994;4.538;2023-09-19T18:49:55;18.20;99.90
18163;DHT22;9206;50.994;4.538;2023-09-19T18:52:53;18.30;99.90
18163;DHT22;9206;50.994;4.538;2023-09-19T18:55:42;18.30;99.90
18163;DHT22;9206;50.994;4.538;2023-09-19T18:58:30;18.30;99.90